Time;durP1;ratioP1;P1;durP2;ratioP2;P2;SDS_P1;SDS_P2;PMS_P1;PMS_P2;Temp;Humidity;BMP_temperature;BMP_pressure;BME280_temperature;BME280_humidity;BME280_pressure;Samples;Min_cycle;Max_cycle;Signal;HPM_P1;HPM_P2
2022/03/01 00:01:30;;;;;;;7.70;3.95;;;;;;;2.85;59.73;100617.19;3149180;28;20040;-64
2022/03/01 00:03:02;;;;;;;4.80;3.15;;;;;;;2.81;59.82;100610.34;3154624;28;20052;-64
2022/03/01 00:04:34;;;;;;;5.32;3.42;;;;;;;2.77;59.91;100600.03;3150295;28;20048;-65
2022/03/01 00:06:06;;;;;;;5.53;3.20;;;;;;;2.81;59.79;100610.34;3145483;28;20654;-65
2022/03/01 00:07:38;;;;;;;4.85;2.97;;;;;;;2.81;59.92;100612.91;3152315;28;20044;-65
2022/03/01 00:09:09;;;;;;;5.20;3.17;;;;;;;2.80;59.85;100608.63;3146995;28;20048;-65
2022/03/01 00:10:41;;;;;;;8.02;4.00;;;;;;;2.84;59.84;100609.47;3149972;28;20591;-65
2022/03/01 00:12:13;;;;;;;6.25;3.75;;;;;;;2.66;59.92;100576.91;3152107;28;20508;-65
2022/03/01 00:13:45;;;;;;;5.05;3.10;;;;;;;2.82;60.08;100609.47;3145846;28;20121;-65
2022/03/01 00:15:17;;;;;;;4.50;2.92;;;;;;;2.82;59.94;100606.91;3153764;28;20113;-65
2022/03/01 00:16:50;;;;;;;4.55;3.35;;;;;;;2.80;60.06;100608.63;3148127;28;20114;-64
2022/03/01 00:18:22;;;;;;;5.85;3.10;;;;;;;2.79;60.07;100599.19;3147048;28;20057;-64
2022/03/01 00:19:54;;;;;;;5.75;3.30;;;;;;;2.80;60.14;100605.19;3153821;28;20049;-64
2022/03/01 00:21:26;;;;;;;6.38;2.95;;;;;;;2.77;60.12;100593.19;3145890;28;20168;-64
2022/03/01 00:22:58;;;;;;;6.70;3.60;;;;;;;2.78;60.07;100609.47;3150794;28;20056;-65
2022/03/01 00:24:30;;;;;;;6.82;3.13;;;;;;;2.77;60.24;100606.03;3153455;28;20101;-64
2022/03/01 00:26:02;;;;;;;5.40;2.90;;;;;;;2.77;60.27;100595.75;3146123;28;20721;-64
2022/03/01 00:27:34;;;;;;;4.18;2.83;;;;;;;2.76;60.38;100596.63;3153111;28;20079;-64
2022/03/01 00:29:06;;;;;;;7.50;3.08;;;;;;;2.74;60.50;100590.63;3146460;28;20109;-64
2022/03/01 00:30:38;;;;;;;5.55;3.00;;;;;;;2.66;60.47;100572.63;3149509;28;20055;-64
2022/03/01 00:32:11;;;;;;;7.40;3.72;;;;;;;2.70;60.63;100579.47;3153695;28;20055;-64
2022/03/01 00:33:44;;;;;;;6.45;3.40;;;;;;;2.68;60.59;100580.34;3146824;28;20048;-64
2022/03/01 00:35:17;;;;;;;7.10;3.42;;;;;;;2.66;60.65;100587.19;3153993;28;20101;-64
2022/03/01 00:36:49;;;;;;;6.35;3.63;;;;;;;2.62;60.65;100583.75;3150571;28;20557;-64
2022/03/01 00:38:19;;;;;;;6.63;3.22;;;;;;;2.60;60.61;100579.47;3146201;28;20363;-64
2022/03/01 00:39:51;;;;;;;6.03;3.10;;;;;;;2.59;60.81;100581.19;3152793;28;20170;-64
2022/03/01 00:41:23;;;;;;;6.20;3.55;;;;;;;2.56;60.74;100575.19;3149880;28;20060;-64
2022/03/01 00:42:55;;;;;;;6.55;4.03;;;;;;;2.49;60.82;100572.63;3150689;28;20424;-64
2022/03/01 00:44:27;;;;;;;7.57;3.83;;;;;;;2.44;61.04;100576.91;3151675;28;20131;-64
2022/03/01 00:45:59;;;;;;;5.45;3.35;;;;;;;2.34;60.93;100567.50;3145241;28;20106;-64
2022/03/01 00:47:33;;;;;;;6.68;3.88;;;;;;;2.39;61.00;100578.59;3151257;28;20037;-66
2022/03/01 00:49:04;;;;;;;8.15;3.60;;;;;;;2.34;61.18;100564.91;3157177;28;20048;-64
2022/03/01 00:50:36;;;;;;;7.07;3.90;;;;;;;2.38;61.13;100576.06;3151576;28;20052;-64
2022/03/01 00:52:08;;;;;;;8.27;4.15;;;;;;;2.38;61.21;100571.75;3154701;28;20105;-65
2022/03/01 00:53:40;;;;;;;6.95;3.90;;;;;;;2.31;61.48;100558.88;3145214;28;20448;-65
2022/03/01 00:55:12;;;;;;;5.82;3.83;;;;;;;2.38;61.46;100568.34;3150167;28;20147;-65
2022/03/01 00:56:44;;;;;;;6.05;3.88;;;;;;;2.35;61.70;100569.19;3150402;28;20146;-65
2022/03/01 00:58:16;;;;;;;6.53;4.15;;;;;;;2.33;61.59;100570.88;3146658;28;20517;-65
2022/03/01 00:59:48;;;;;;;7.50;4.25;;;;;;;2.32;61.72;100568.34;3152186;28;20091;-65
2022/03/01 01:01:20;;;;;;;5.20;3.85;;;;;;;2.33;61.79;100567.47;3156400;28;20048;-65
2022/03/01 01:02:53;;;;;;;9.63;4.40;;;;;;;2.33;61.93;100562.31;3154246;28;20055;-65
2022/03/01 01:04:25;;;;;;;8.60;3.78;;;;;;;2.30;61.99;100559.75;3152772;28;20120;-65
2022/03/01 01:05:57;;;;;;;7.35;4.22;;;;;;;2.30;62.17;100568.31;3145053;28;20217;-66
2022/03/01 01:07:29;;;;;;;7.65;4.22;;;;;;;2.26;62.17;100558.91;3152569;28;20097;-65
2022/03/01 01:09:01;;;;;;;7.13;4.53;;;;;;;2.25;62.32;100563.19;3149045;28;20113;-65
2022/03/01 01:10:33;;;;;;;6.55;3.78;;;;;;;2.25;62.31;100563.19;3145904;28;20467;-65
2022/03/01 01:12:06;;;;;;;7.57;4.30;;;;;;;2.24;62.48;100561.47;3153604;28;20052;-65
2022/03/01 01:13:38;;;;;;;7.53;4.13;;;;;;;2.21;62.54;100563.19;3151433;28;20481;-65
2022/03/01 01:15:11;;;;;;;11.20;4.57;;;;;;;2.22;62.77;100554.63;3148068;28;20233;-65
2022/03/01 01:16:43;;;;;;;6.00;3.80;;;;;;;2.16;62.75;100560.63;3151725;28;20052;-65
2022/03/01 01:18:17;;;;;;;5.50;3.80;;;;;;;2.16;62.93;100560.63;3147941;28;20428;-65
2022/03/01 01:19:49;;;;;;;5.05;3.28;;;;;;;2.16;62.72;100559.72;3152962;28;20056;-65
2022/03/01 01:21:21;;;;;;;6.32;4.10;;;;;;;2.14;62.83;100572.59;3147605;28;20052;-65
2022/03/01 01:22:52;;;;;;;7.70;4.30;;;;;;;2.11;62.88;100570.03;3145223;28;21013;-65
2022/03/01 01:24:24;;;;;;;6.55;3.78;;;;;;;2.10;62.84;100570.00;3154176;28;20197;-65
2022/03/01 01:25:56;;;;;;;6.45;3.53;;;;;;;2.08;63.01;100570.03;3149751;28;20052;-65
2022/03/01 01:27:27;;;;;;;6.38;3.85;;;;;;;2.05;62.95;100562.31;3147402;28;20063;-65
2022/03/01 01:28:59;;;;;;;7.40;3.90;;;;;;;2.06;63.01;100558.88;3154071;28;20178;-65
2022/03/01 01:30:33;;;;;;;6.53;4.05;;;;;;;2.08;63.08;100564.03;3145727;28;20102;-65
2022/03/01 01:32:05;;;;;;;7.70;4.32;;;;;;;2.06;62.96;100569.16;3152724;28;20106;-65
2022/03/01 01:33:38;;;;;;;7.22;3.95;;;;;;;2.02;63.19;100560.59;3145955;28;20155;-65
2022/03/01 01:35:11;;;;;;;5.90;3.40;;;;;;;1.85;63.10;100528.88;3150222;28;20561;-65
2022/03/01 01:36:43;;;;;;;7.18;4.13;;;;;;;2.01;63.20;100563.13;3152114;28;20532;-65
2022/03/01 01:38:15;;;;;;;8.18;4.05;;;;;;;2.09;63.16;100568.31;3155908;28;20516;-65
2022/03/01 01:39:47;;;;;;;7.28;4.05;;;;;;;2.08;63.10;100566.59;3150154;28;20121;-64
2022/03/01 01:41:19;;;;;;;7.78;4.50;;;;;;;2.12;63.18;100573.44;3151484;28;20048;-64
2022/03/01 01:42:52;;;;;;;7.88;4.82;;;;;;;2.07;63.25;100554.59;3144236;28;20056;-64
2022/03/01 01:44:24;;;;;;;9.25;5.43;;;;;;;2.10;63.26;100568.31;3151339;28;20076;-64
2022/03/01 01:45:56;;;;;;;13.25;5.60;;;;;;;2.14;63.18;100569.16;3146584;28;20071;-64
2022/03/01 01:47:27;;;;;;;6.47;4.25;;;;;;;2.13;63.38;100568.31;3148547;28;20928;-64
2022/03/01 01:49:00;;;;;;;7.85;4.28;;;;;;;2.14;63.10;100567.47;3154451;28;20230;-64
2022/03/01 01:50:34;;;;;;;7.88;4.78;;;;;;;2.03;63.17;100551.16;3156725;28;20093;-64
2022/03/01 01:52:06;;;;;;;7.93;5.35;;;;;;;2.15;63.35;100570.88;3153465;28;20525;-65
2022/03/01 01:53:38;;;;;;;8.23;4.40;;;;;;;2.12;63.19;100560.59;3147737;28;20437;-64
2022/03/01 01:55:10;;;;;;;10.50;4.80;;;;;;;2.12;63.18;100569.16;3156527;28;20110;-64
2022/03/01 01:56:41;;;;;;;8.82;5.15;;;;;;;2.16;63.45;100570.91;3154600;28;20472;-64
2022/03/01 01:58:13;;;;;;;7.97;5.45;;;;;;;2.16;63.36;100570.91;3145097;28;20044;-64
2022/03/01 01:59:44;;;;;;;7.70;4.53;;;;;;;2.12;63.37;100569.16;3153738;28;20105;-64
2022/03/01 02:01:16;;;;;;;6.25;3.47;;;;;;;2.05;63.52;100559.75;3151019;28;20139;-63
2022/03/01 02:02:48;;;;;;;8.68;4.60;;;;;;;2.06;63.63;100571.72;3149634;28;20121;-64
2022/03/01 02:04:21;;;;;;;10.85;4.30;;;;;;;2.03;63.76;100564.84;3151177;28;20040;-64
2022/03/01 02:05:53;;;;;;;8.80;4.93;;;;;;;1.98;63.79;100561.44;3147160;28;20422;-64
2022/03/01 02:07:25;;;;;;;8.35;4.55;;;;;;;1.95;63.84;100558.88;3145714;28;20056;-64
2022/03/01 02:08:57;;;;;;;8.00;4.78;;;;;;;1.93;63.93;100552.00;3154476;28;20109;-65
2022/03/01 02:10:29;;;;;;;12.95;4.05;;;;;;;1.68;63.85;100510.00;3144889;28;20052;-65
2022/03/01 02:12:02;;;;;;;18.85;4.35;;;;;;;1.86;63.93;100540.84;3148194;28;20040;-65
2022/03/01 02:13:34;;;;;;;8.63;4.43;;;;;;;1.87;63.99;100550.28;3150528;28;20151;-65
2022/03/01 02:15:08;;;;;;;7.82;4.22;;;;;;;1.93;63.96;100547.72;3145500;28;20514;-65
2022/03/01 02:16:39;;;;;;;7.22;4.35;;;;;;;1.90;64.23;100544.31;3152461;28;20047;-65
2022/03/01 02:18:11;;;;;;;10.15;4.40;;;;;;;1.91;64.15;100548.56;3149772;28;20500;-65
2022/03/01 02:19:47;;;;;;;10.30;4.03;;;;;;;1.91;64.09;100541.72;3147333;28;20504;-65
2022/03/01 02:21:20;;;;;;;6.20;3.90;;;;;;;1.86;64.28;100542.56;3151985;28;20048;-65
2022/03/01 02:22:55;;;;;;;9.32;4.07;;;;;;;1.53;64.21;100485.13;3145015;28;20045;-65
2022/03/01 02:24:28;;;;;;;6.57;3.92;;;;;;;1.85;64.21;100543.41;3151230;28;20036;-65
2022/03/01 02:26:00;;;;;;;8.43;4.28;;;;;;;1.84;64.37;100545.13;3146102;28;20052;-65
2022/03/01 02:27:32;;;;;;;6.18;4.30;;;;;;;1.87;64.45;100537.44;3145874;28;20045;-66
2022/03/01 02:29:04;;;;;;;8.75;4.60;;;;;;;1.89;64.35;100532.28;3156541;28;20048;-64
2022/03/01 02:30:36;;;;;;;8.05;4.00;;;;;;;1.89;64.36;100542.56;3146709;28;20084;-65
2022/03/01 02:32:10;;;;;;;7.65;4.20;;;;;;;1.90;64.37;100527.16;3151202;28;20048;-64
2022/03/01 02:33:42;;;;;;;8.52;4.57;;;;;;;1.69;64.36;100493.75;3154389;28;20053;-65
2022/03/01 02:35:14;;;;;;;7.95;4.50;;;;;;;1.88;64.31;100522.88;3151184;28;20102;-64
2022/03/01 02:36:47;;;;;;;11.15;4.20;;;;;;;1.94;64.25;100525.47;3152248;28;20045;-64
2022/03/01 02:38:18;;;;;;;6.07;4.00;;;;;;;1.93;64.01;100519.47;3149421;28;20566;-65
2022/03/01 02:39:53;;;;;;;7.70;4.47;;;;;;;1.95;64.06;100519.47;3149047;28;20590;-65
2022/03/01 02:41:25;;;;;;;9.70;4.22;;;;;;;1.95;63.98;100520.34;3156099;28;20047;-65
2022/03/01 02:42:57;;;;;;;11.60;6.13;;;;;;;1.95;64.08;100520.34;3150800;28;20171;-65
2022/03/01 02:44:29;;;;;;;11.45;5.88;;;;;;;1.93;63.84;100519.47;3150541;28;20110;-65
2022/03/01 02:46:01;;;;;;;12.70;6.50;;;;;;;1.94;63.92;100510.06;3154483;28;20102;-65
2022/03/01 02:47:33;;;;;;;10.70;5.82;;;;;;;1.92;63.99;100525.44;3146638;28;20090;-65
2022/03/01 02:49:06;;;;;;;7.50;5.10;;;;;;;1.91;64.13;100516.03;3154177;28;20689;-65
2022/03/01 02:50:38;;;;;;;8.10;5.57;;;;;;;1.84;64.26;100511.75;3149099;28;20102;-65
2022/03/01 02:52:11;;;;;;;7.93;4.70;;;;;;;1.87;64.24;100516.91;3147925;28;20426;-65
2022/03/01 02:53:43;;;;;;;;;;;;;;;1.67;64.47;100523.69;3156302;28;20483;-65
2022/03/01 02:55:15;;;;;;;7.38;4.55;;;;;;;1.61;64.72;100495.44;3147658;28;19928;-65
2022/03/01 02:56:47;;;;;;;7.80;5.00;;;;;;;1.73;64.77;100516.00;3150701;28;20052;-65
2022/03/01 02:58:19;;;;;;;8.05;5.30;;;;;;;1.72;64.86;100519.44;3152869;28;20525;-65
2022/03/01 02:59:50;;;;;;;9.10;5.38;;;;;;;1.71;64.96;100515.97;3146552;28;20514;-65
2022/03/01 03:01:21;;;;;;;10.43;5.68;;;;;;;1.69;65.10;100522.00;3152982;28;20101;-65
2022/03/01 03:02:53;;;;;;;11.65;6.32;;;;;;;1.66;65.19;100510.00;3148673;28;20040;-65
2022/03/01 03:04:26;;;;;;;8.90;5.80;;;;;;;1.57;65.29;100500.56;3146610;28;20044;-65
2022/03/01 03:05:58;;;;;;;8.63;5.68;;;;;;;1.60;65.37;100510.00;3154997;28;20043;-65
2022/03/01 03:07:31;;;;;;;10.05;5.30;;;;;;;1.56;65.17;100501.41;3153788;28;20052;-65
2022/03/01 03:09:03;;;;;;;9.50;5.57;;;;;;;1.48;65.42;100482.56;3155698;28;20036;-65
2022/03/01 03:10:35;;;;;;;8.88;5.47;;;;;;;1.53;65.30;100498.81;3152339;28;20394;-65
2022/03/01 03:12:09;;;;;;;10.75;6.47;;;;;;;1.51;65.63;100505.69;3146386;28;20185;-65
2022/03/01 03:13:41;;;;;;;10.63;6.25;;;;;;;1.48;65.58;100508.25;3155319;28;20055;-65
2022/03/01 03:15:13;;;;;;;10.88;5.75;;;;;;;1.44;65.81;100506.50;3149752;28;20114;-64
2022/03/01 03:16:45;;;;;;;8.27;5.10;;;;;;;1.43;65.95;100509.94;3149388;28;20048;-66
2022/03/01 03:18:17;;;;;;;9.23;5.97;;;;;;;1.41;65.93;100514.19;3154395;28;20075;-66
2022/03/01 03:19:49;;;;;;;9.38;5.13;;;;;;;1.40;65.93;100525.31;3147566;28;20083;-65
2022/03/01 03:21:21;;;;;;;9.15;5.80;;;;;;;1.39;65.92;100523.63;3151198;28;20057;-65
2022/03/01 03:22:55;;;;;;;9.80;5.22;;;;;;;1.37;66.05;100522.75;3156034;28;20472;-65
2022/03/01 03:24:27;;;;;;;10.25;5.65;;;;;;;1.33;66.17;100514.19;3146604;28;20048;-65
2022/03/01 03:25:59;;;;;;;10.63;6.15;;;;;;;1.30;66.16;100521.88;3155308;28;20613;-65
2022/03/01 03:27:31;;;;;;;11.07;6.18;;;;;;;1.29;66.30;100516.72;3154065;28;20121;-65
2022/03/01 03:29:03;;;;;;;10.90;5.53;;;;;;;1.27;66.46;100518.41;3149826;28;20044;-65
2022/03/01 03:30:35;;;;;;;10.13;6.13;;;;;;;1.26;66.58;100516.69;3153627;28;20048;-65
2022/03/01 03:32:07;;;;;;;9.48;5.85;;;;;;;1.25;66.58;100515.84;3146337;28;20060;-65
2022/03/01 03:33:39;;;;;;;9.48;5.55;;;;;;;1.22;66.75;100522.69;3153240;28;20105;-65
2022/03/01 03:35:11;;;;;;;9.30;5.68;;;;;;;1.20;66.88;100527.78;3149222;28;20052;-65
2022/03/01 03:36:43;;;;;;;9.25;5.75;;;;;;;1.17;67.13;100521.78;3147399;28;20056;-65
2022/03/01 03:38:17;;;;;;;9.95;6.10;;;;;;;1.19;67.31;100520.97;3152805;28;20051;-65
2022/03/01 03:39:49;;;;;;;12.43;6.10;;;;;;;1.16;67.35;100520.09;3152820;28;20143;-65
2022/03/01 03:41:21;;;;;;;11.52;5.97;;;;;;;1.17;67.47;100525.22;3150434;28;20053;-65
2022/03/01 03:42:53;;;;;;;13.70;6.43;;;;;;;1.18;67.73;100528.63;3153590;28;20144;-65
2022/03/01 03:44:25;;;;;;;10.80;6.50;;;;;;;1.11;67.81;100517.50;3158588;28;20541;-65
2022/03/01 03:45:57;;;;;;;13.73;7.03;;;;;;;1.19;67.88;100530.38;3152604;28;21533;-65
2022/03/01 03:47:29;;;;;;;;;;;;;;;1.02;67.88;100522.56;3149544;28;20491;-65
2022/03/01 03:49:01;;;;;;;12.45;6.43;;;;;;;1.09;68.29;100530.28;3149777;28;20014;-65
2022/03/01 03:50:33;;;;;;;16.58;8.05;;;;;;;1.16;68.42;100526.06;3154432;28;20119;-65
2022/03/01 03:52:07;;;;;;;12.13;7.72;;;;;;;1.21;68.55;100529.50;3158330;28;20498;-65
2022/03/01 03:53:40;;;;;;;14.75;8.13;;;;;;;1.26;68.53;100524.41;3154830;28;20048;-65
2022/03/01 03:55:12;;;;;;;11.82;7.57;;;;;;;1.25;68.46;100509.88;3152093;28;20118;-65
2022/03/01 03:56:44;;;;;;;14.93;8.18;;;;;;;1.31;68.56;100517.59;3151484;28;20101;-64
2022/03/01 03:58:16;;;;;;;17.27;8.98;;;;;;;1.35;68.66;100514.16;3151670;28;20044;-65
2022/03/01 03:59:48;;;;;;;19.98;9.80;;;;;;;1.36;68.44;100513.31;3157421;28;20146;-65
2022/03/01 04:01:20;;;;;;;14.13;8.60;;;;;;;1.40;68.59;100511.63;3154863;28;20572;-64
2022/03/01 04:02:52;;;;;;;17.75;9.10;;;;;;;1.22;68.53;100471.38;3151410;28;20048;-65
2022/03/01 04:04:24;;;;;;;18.23;9.85;;;;;;;1.46;68.63;100501.38;3146082;28;20159;-64
2022/03/01 04:05:55;;;;;;;17.25;9.57;;;;;;;1.47;68.59;100503.09;3152523;28;20509;-64
2022/03/01 04:07:29;;;;;;;18.48;9.77;;;;;;;1.50;68.69;100497.97;3149717;28;20049;-65
2022/03/01 04:09:03;;;;;;;19.52;9.40;;;;;;;1.49;68.87;100497.13;3147820;28;20136;-66
2022/03/01 04:10:35;;;;;;;24.25;11.20;;;;;;;1.51;68.81;100503.13;3152577;28;20456;-66
2022/03/01 04:12:07;;;;;;;18.83;11.48;;;;;;;1.47;68.95;100497.97;3149933;28;20574;-66
2022/03/01 04:13:39;;;;;;;23.90;11.75;;;;;;;1.31;68.99;100477.38;3148315;28;20052;-66
2022/03/01 04:15:12;;;;;;;24.60;11.82;;;;;;;1.48;68.97;100503.13;3153140;28;20048;-67
2022/03/01 04:16:44;;;;;;;20.50;10.93;;;;;;;1.43;68.94;100489.41;3145896;28;20060;-67
2022/03/01 04:18:16;;;;;;;22.83;11.10;;;;;;;1.53;68.79;100496.25;3150111;28;20041;-67
2022/03/01 04:19:48;;;;;;;19.83;10.52;;;;;;;1.54;68.78;100494.56;3153832;28;20048;-65
2022/03/01 04:21:20;;;;;;;22.80;11.98;;;;;;;1.55;68.93;100496.28;3149185;28;20513;-65
2022/03/01 04:22:52;;;;;;;20.58;10.88;;;;;;;1.39;68.94;100468.84;3154656;28;20101;-66
2022/03/01 04:24:24;;;;;;;20.27;10.15;;;;;;;1.58;68.83;100499.69;3145373;28;21772;-66
2022/03/01 04:25:56;;;;;;;19.33;10.40;;;;;;;1.58;68.96;100499.69;3154971;28;20126;-66
2022/03/01 04:27:28;;;;;;;18.00;10.27;;;;;;;1.62;68.83;100494.56;3154042;28;20040;-66
2022/03/01 04:29:00;;;;;;;22.63;10.45;;;;;;;1.64;68.89;100504.00;3147322;28;20501;-65
2022/03/01 04:30:32;;;;;;;18.30;9.18;;;;;;;1.65;68.98;100507.41;3151742;28;20048;-66
2022/03/01 04:32:04;;;;;;;22.23;9.48;;;;;;;1.67;68.95;100505.72;3148332;28;20109;-67
2022/03/01 04:33:36;;;;;;;16.00;9.07;;;;;;;1.64;68.96;100503.16;3148247;28;20500;-66
2022/03/01 04:35:10;;;;;;;18.65;10.45;;;;;;;1.64;68.92;100498.88;3154387;28;20542;-66
2022/03/01 04:36:42;;;;;;;16.67;8.95;;;;;;;1.66;68.99;100501.44;3145643;28;20056;-65
2022/03/01 04:38:14;;;;;;;18.95;9.57;;;;;;;1.68;68.91;100502.28;3149926;28;20098;-65
2022/03/01 04:39:47;;;;;;;17.33;9.35;;;;;;;1.70;68.72;100503.16;3150713;28;20578;-65
2022/03/01 04:41:19;;;;;;;17.55;9.95;;;;;;;1.69;68.80;100497.16;3145868;28;20580;-66
2022/03/01 04:42:51;;;;;;;18.70;9.10;;;;;;;1.71;68.74;100505.72;3152167;28;20040;-65
2022/03/01 04:44:23;;;;;;;17.75;9.88;;;;;;;1.72;68.80;100502.31;3148986;28;20048;-66
2022/03/01 04:45:56;;;;;;;16.33;9.45;;;;;;;1.73;68.80;100504.03;3146400;28;21003;-65
2022/03/01 04:47:28;;;;;;;18.75;9.40;;;;;;;1.72;68.70;100507.44;3151188;28;20053;-65
2022/03/01 04:49:00;;;;;;;18.85;10.45;;;;;;;1.71;68.81;100503.16;3146289;28;20052;-65
2022/03/01 04:50:32;;;;;;;19.50;9.73;;;;;;;1.73;68.82;100510.88;3154347;28;20093;-65
2022/03/01 04:52:03;;;;;;;18.52;9.73;;;;;;;1.67;68.85;100501.44;3145815;28;20081;-66
2022/03/01 04:53:36;;;;;;;19.58;10.75;;;;;;;1.67;68.80;100503.16;3147795;28;20449;-65
2022/03/01 04:55:10;;;;;;;24.15;11.70;;;;;;;1.73;68.66;100510.88;3153135;28;20048;-65
2022/03/01 04:56:42;;;;;;;19.80;11.30;;;;;;;1.73;68.78;100514.28;3145419;28;20060;-65
2022/03/01 04:58:14;;;;;;;27.85;11.50;;;;;;;1.75;68.96;100519.44;3149560;28;20044;-64
2022/03/01 04:59:46;;;;;;;22.48;12.07;;;;;;;1.75;68.79;100520.28;3155211;28;20047;-64
2022/03/01 05:01:18;;;;;;;31.00;12.23;;;;;;;1.73;68.99;100524.56;3156694;28;20105;-64
2022/03/01 05:02:50;;;;;;;26.23;12.63;;;;;;;1.75;68.98;100519.44;3155551;28;20044;-64
2022/03/01 05:04:22;;;;;;;20.73;11.88;;;;;;;1.72;69.12;100506.59;3145167;28;20052;-63
2022/03/01 05:05:54;;;;;;;26.40;11.68;;;;;;;1.76;69.05;100513.44;3147916;28;20044;-64
2022/03/01 05:07:26;;;;;;;22.67;11.10;;;;;;;1.81;68.94;100532.28;3151984;28;20139;-63
2022/03/01 05:08:58;;;;;;;20.35;11.77;;;;;;;1.78;68.87;100514.31;3145447;28;20052;-63
2022/03/01 05:10:31;;;;;;;21.30;12.15;;;;;;;1.86;68.93;100529.72;3151329;28;20542;-63
2022/03/01 05:12:03;;;;;;;;;;;;;;;1.69;69.12;100522.84;3148894;28;20066;-65
2022/03/01 05:13:35;;;;;;;21.70;11.82;;;;;;;1.77;69.26;100528.00;3145963;28;19924;-65
2022/03/01 05:15:07;;;;;;;22.58;11.65;;;;;;;1.87;69.00;100531.44;3153708;28;20070;-65
2022/03/01 05:16:39;;;;;;;24.88;13.40;;;;;;;1.88;68.92;100533.16;3156280;28;20048;-65
2022/03/01 05:18:11;;;;;;;28.60;12.63;;;;;;;1.91;68.79;100535.72;3154108;28;20043;-65
2022/03/01 05:19:43;;;;;;;25.52;14.50;;;;;;;1.93;68.78;100537.44;3150994;28;20051;-66
2022/03/01 05:21:15;;;;;;;26.33;14.75;;;;;;;1.96;68.97;100536.59;3145364;28;20424;-67
2022/03/01 05:22:46;;;;;;;27.45;13.98;;;;;;;1.98;68.79;100540.00;3151955;28;20056;-66
2022/03/01 05:24:18;;;;;;;25.27;14.18;;;;;;;2.03;68.73;100538.31;3150138;28;20058;-66
2022/03/01 05:25:51;;;;;;;33.65;16.33;;;;;;;2.07;68.64;100539.16;3145443;28;20114;-65
2022/03/01 05:27:23;;;;;;;28.45;15.15;;;;;;;2.08;68.52;100536.63;3153016;28;20049;-65
2022/03/01 05:28:55;;;;;;;24.55;13.77;;;;;;;2.05;68.35;100537.47;3150942;28;20094;-65
2022/03/01 05:30:27;;;;;;;29.55;14.38;;;;;;;2.11;68.41;100535.78;3154207;28;20178;-65
2022/03/01 05:31:59;;;;;;;24.17;14.05;;;;;;;2.14;68.34;100540.91;3150376;28;20044;-65
2022/03/01 05:33:31;;;;;;;26.08;14.05;;;;;;;2.14;68.46;100540.91;3148924;28;20048;-65
2022/03/01 05:35:04;;;;;;;25.27;13.27;;;;;;;2.13;68.50;100537.50;3153476;28;20047;-65
2022/03/01 05:36:36;;;;;;;26.73;13.35;;;;;;;2.18;68.33;100550.31;3155289;28;20057;-64
2022/03/01 05:38:09;;;;;;;26.88;12.95;;;;;;;2.16;68.41;100540.06;3145637;28;20523;-65
2022/03/01 05:39:41;;;;;;;25.85;13.70;;;;;;;2.21;68.38;100538.31;3153603;28;20079;-64
2022/03/01 05:41:15;;;;;;;26.38;12.48;;;;;;;2.26;68.25;100552.03;3145951;28;20048;-65
2022/03/01 05:42:47;;;;;;;;;;;;;;;2.10;68.46;100560.59;3148885;28;20055;-64
2022/03/01 05:44:20;;;;;;;19.23;11.38;;;;;;;2.20;68.54;100564.03;3150017;28;19964;-65
2022/03/01 05:45:52;;;;;;;23.90;12.70;;;;;;;2.24;68.50;100552.91;3147904;28;20056;-64
2022/03/01 05:47:24;;;;;;;21.65;11.45;;;;;;;2.30;68.23;100558.03;3151683;28;20104;-64
2022/03/01 05:48:56;;;;;;;18.15;9.85;;;;;;;2.30;68.04;100560.59;3153560;28;20109;-65
2022/03/01 05:50:28;;;;;;;20.45;10.52;;;;;;;2.28;67.79;100557.19;3150654;28;20128;-65
2022/03/01 05:52:00;;;;;;;23.73;10.27;;;;;;;2.30;67.88;100558.03;3155041;28;20590;-65
2022/03/01 05:53:32;;;;;;;17.52;9.48;;;;;;;2.34;67.95;100557.22;3144578;28;20052;-65
2022/03/01 05:55:06;;;;;;;16.00;9.73;;;;;;;2.37;67.68;100549.50;3148712;28;20093;-65
2022/03/01 05:56:39;;;;;;;15.48;9.65;;;;;;;2.39;67.81;100557.19;3154130;28;20052;-65
2022/03/01 05:58:11;;;;;;;17.23;9.73;;;;;;;2.40;67.62;100556.34;3147251;28;20120;-65
2022/03/01 05:59:44;;;;;;;14.85;8.55;;;;;;;2.47;67.71;100558.06;3151900;28;20086;-65
2022/03/01 06:01:16;;;;;;;15.93;9.15;;;;;;;2.53;67.55;100562.34;3156457;28;20106;-63
2022/03/01 06:02:49;;;;;;;17.60;9.05;;;;;;;2.57;67.50;100569.19;3152909;28;20051;-64
2022/03/01 06:04:21;;;;;;;14.50;8.82;;;;;;;2.57;67.45;100567.47;3150257;28;20414;-64
2022/03/01 06:05:53;;;;;;;19.02;8.73;;;;;;;2.63;67.39;100574.31;3145991;28;20094;-63
2022/03/01 06:07:25;;;;;;;14.40;8.57;;;;;;;2.67;67.22;100574.34;3151016;28;20097;-63
2022/03/01 06:08:57;;;;;;;17.08;9.15;;;;;;;2.72;67.13;100576.88;3149444;28;20048;-64
2022/03/01 06:10:29;;;;;;;16.20;8.52;;;;;;;2.73;66.82;100574.34;3145131;28;20098;-64
2022/03/01 06:12:02;;;;;;;14.27;8.18;;;;;;;2.78;66.72;100576.03;3155098;28;20055;-64
2022/03/01 06:13:34;;;;;;;14.63;9.45;;;;;;;2.76;66.76;100578.63;3144977;28;20060;-64
2022/03/01 06:15:07;;;;;;;13.48;8.15;;;;;;;2.83;66.47;100585.47;3147725;28;20056;-63
2022/03/01 06:16:40;;;;;;;15.23;8.07;;;;;;;2.82;66.46;100583.75;3151487;28;20642;-64
2022/03/01 06:18:12;;;;;;;13.40;8.60;;;;;;;2.85;66.19;100588.03;3144821;28;20044;-63
2022/03/01 06:19:44;;;;;;;13.88;7.43;;;;;;;2.86;66.11;100589.75;3151663;28;20434;-63
2022/03/01 06:21:16;;;;;;;14.50;8.10;;;;;;;2.89;65.94;100593.16;3147810;28;20052;-63
2022/03/01 06:22:48;;;;;;;16.40;7.82;;;;;;;2.93;65.92;100587.19;3145679;28;20048;-63
2022/03/01 06:24:20;;;;;;;13.93;8.20;;;;;;;2.96;65.98;100591.47;3152763;28;20048;-63
2022/03/01 06:25:52;;;;;;;14.07;8.48;;;;;;;2.98;65.73;100587.16;3144683;28;20098;-63
2022/03/01 06:27:25;;;;;;;20.05;8.95;;;;;;;3.00;65.51;100588.03;3148701;28;20050;-63
2022/03/01 06:28:57;;;;;;;14.02;8.38;;;;;;;3.03;65.56;100582.88;3151873;28;20052;-63
2022/03/01 06:30:29;;;;;;;19.25;7.78;;;;;;;3.03;65.48;100582.88;3144277;28;20049;-62
2022/03/01 06:32:01;;;;;;;14.43;8.50;;;;;;;3.07;65.19;100589.72;3151242;28;20093;-63
2022/03/01 06:33:33;;;;;;;18.50;7.97;;;;;;;3.12;65.04;100587.13;3151772;28;20045;-64
2022/03/01 06:35:06;;;;;;;15.80;8.10;;;;;;;3.03;65.00;100566.56;3149938;28;20048;-64
2022/03/01 06:36:38;;;;;;;14.32;8.18;;;;;;;3.13;64.74;100586.28;3153375;28;20591;-64
2022/03/01 06:38:10;;;;;;;11.50;7.43;;;;;;;3.07;64.72;100576.00;3156153;28;20056;-64
2022/03/01 06:39:42;;;;;;;19.52;7.57;;;;;;;3.19;64.56;100592.28;3154533;28;20124;-65
2022/03/01 06:41:14;;;;;;;14.77;7.40;;;;;;;3.21;64.29;100596.56;3149758;28;20040;-65
2022/03/01 06:42:48;;;;;;;14.23;6.78;;;;;;;3.12;64.23;100571.69;3150158;28;20056;-65
2022/03/01 06:44:20;;;;;;;16.23;7.53;;;;;;;3.19;63.93;100589.72;3149001;28;20044;-64
2022/03/01 06:45:52;;;;;;;14.15;7.20;;;;;;;3.22;63.89;100587.97;3149683;28;20516;-64
2022/03/01 06:47:24;;;;;;;16.73;7.70;;;;;;;3.23;63.75;100593.13;3146750;28;20064;-64
2022/03/01 06:48:56;;;;;;;12.88;7.47;;;;;;;3.26;63.52;100595.69;3151622;28;20434;-65
2022/03/01 06:50:28;;;;;;;15.75;7.65;;;;;;;3.28;63.44;100590.53;3144183;28;20048;-65
2022/03/01 06:52:00;;;;;;;11.88;7.38;;;;;;;3.28;63.46;100588.78;3149290;28;20071;-65
2022/03/01 06:53:32;;;;;;;13.82;7.38;;;;;;;3.28;63.39;100591.38;3146308;28;20370;-65
2022/03/01 06:55:05;;;;;;;9.88;6.30;;;;;;;3.32;62.99;100600.81;3146165;28;20115;-65
2022/03/01 06:56:37;;;;;;;11.85;7.97;;;;;;;3.27;62.82;100587.09;3150793;28;20100;-64
2022/03/01 06:58:11;;;;;;;12.10;7.13;;;;;;;3.08;62.75;100563.13;3152814;28;20051;-65
2022/03/01 06:59:43;;;;;;;14.05;7.63;;;;;;;3.24;62.51;100583.69;3153391;28;20590;-68
2022/03/01 07:01:15;;;;;;;13.20;7.60;;;;;;;3.31;62.48;100593.09;3153139;28;20059;-68
2022/03/01 07:02:47;;;;;;;12.40;6.70;;;;;;;3.28;62.35;100593.94;3155101;28;20489;-68
2022/03/01 07:04:19;;;;;;;14.90;7.60;;;;;;;3.36;62.38;100594.78;3152484;28;20052;-67
2022/03/01 07:05:51;;;;;;;15.18;8.15;;;;;;;3.35;62.30;100598.22;3152457;28;20052;-67
2022/03/01 07:07:23;;;;;;;13.35;7.55;;;;;;;3.41;62.27;100600.78;3152201;28;20054;-66
2022/03/01 07:08:54;;;;;;;15.55;8.10;;;;;;;3.44;62.08;100601.66;3150392;28;20097;-66
2022/03/01 07:10:26;;;;;;;13.23;7.00;;;;;;;3.47;62.13;100597.34;3149769;28;20508;-66
2022/03/01 07:11:58;;;;;;;11.63;6.97;;;;;;;3.50;61.89;100599.91;3148376;28;20048;-65